Wetterdaten: Woche 11.06.18 - 17.06.18 (KW24)
Datum Zeit Temperatur Luftfeuchte Luftdruck Niederschlag Windrichtung Sonnenschein Solar Wind
11.06.2018 00:00 18,2 C 95 % 1008,7 hPa 0,0 l/m N 0,00 h 0 W/m 0,0 km/h (0 Bft)
11.06.2018 01:00 17,6 C 96 % 1008,6 hPa 0,0 l/m N 0,00 h 0 W/m 0,0 km/h (0 Bft)
11.06.2018 02:00 17,4 C 97 % 1008,4 hPa 0,0 l/m N 0,00 h 0 W/m 0,0 km/h (0 Bft)
11.06.2018 03:00 16,7 C 97 % 1007,8 hPa 0,0 l/m N 0,00 h 0 W/m 0,0 km/h (0 Bft)
11.06.2018 04:00 16,2 C 98 % 1007,4 hPa 0,0 l/m N 0,00 h 0 W/m 0,0 km/h (0 Bft)
11.06.2018 05:00 15,7 C 98 % 1007,4 hPa 0,0 l/m N 0,25 h 17 W/m 0,0 km/h (0 Bft)
11.06.2018 06:00 15,8 C 99 % 1007,1 hPa 0,0 l/m N 0,00 h 75 W/m 0,3 km/h (0 Bft)
11.06.2018 07:00 17,5 C 97 % 1007,0 hPa 0,0 l/m N 0,75 h 206 W/m 0,0 km/h (0 Bft)
11.06.2018 08:00 20,5 C 87 % 1007,2 hPa 0,0 l/m N 1,00 h 393 W/m 0,0 km/h (0 Bft)
11.06.2018 09:00 21,7 C 81 % 1007,0 hPa 0,0 l/m N 0,83 h 383 W/m 0,4 km/h (0 Bft)
11.06.2018 10:00 23,9 C 73 % 1006,7 hPa 0,0 l/m N 1,00 h 506 W/m 0,3 km/h (0 Bft)
11.06.2018 11:00 25,0 C 69 % 1006,6 hPa 0,0 l/m N 0,58 h 553 W/m 0,7 km/h (0 Bft)
11.06.2018 12:00 26,3 C 64 % 1006,3 hPa 0,0 l/m O 0,92 h 621 W/m 4,7 km/h (1 Bft)
11.06.2018 13:00 25,9 C 63 % 1005,7 hPa 0,0 l/m N 0,17 h 382 W/m 6,4 km/h (2 Bft)
11.06.2018 14:00 25,4 C 68 % 1004,9 hPa 0,0 l/m N-NW 0,00 h 308 W/m 5,9 km/h (2 Bft)
11.06.2018 15:00 25,1 C 70 % 1004,3 hPa 0,0 l/m N-NW 0,00 h 315 W/m 7,2 km/h (2 Bft)
11.06.2018 16:00 24,9 C 69 % 1003,6 hPa 0,0 l/m W-NW 0,17 h 301 W/m 7,4 km/h (2 Bft)
11.06.2018 17:00 22,0 C 81 % 1003,6 hPa 8,0 l/m SW 0,00 h 101 W/m 13,0 km/h (3 Bft)
11.06.2018 18:00 19,7 C 91 % 1004,8 hPa 0,0 l/m W-SW 0,00 h 125 W/m 13,5 km/h (3 Bft)
11.06.2018 19:00 19,3 C 91 % 1004,7 hPa 0,0 l/m W-SW 0,00 h 93 W/m 9,7 km/h (2 Bft)
11.06.2018 20:00 18,9 C 88 % 1005,0 hPa 0,0 l/m W-NW 0,08 h 45 W/m 10,3 km/h (2 Bft)
11.06.2018 21:00 18,2 C 92 % 1005,8 hPa 0,0 l/m NW 0,00 h 9 W/m 5,1 km/h (1 Bft)
11.06.2018 22:00 16,8 C 96 % 1006,3 hPa 0,0 l/m N 0,00 h 0 W/m 0,0 km/h (0 Bft)
11.06.2018 23:00 15,8 C 97 % 1006,1 hPa 0,0 l/m N 0,00 h 0 W/m 0,0 km/h (0 Bft)
12.06.2018 00:00 15,7 C 98 % 1005,9 hPa 0,0 l/m N 0,00 h 0 W/m 0,0 km/h (0 Bft)
12.06.2018 01:00 15,8 C 98 % 1005,7 hPa 0,0 l/m N 0,00 h 0 W/m 0,0 km/h (0 Bft)
12.06.2018 02:00 15,4 C 98 % 1005,9 hPa 0,0 l/m N 0,00 h 0 W/m 0,0 km/h (0 Bft)
12.06.2018 03:00 15,0 C 99 % 1006,2 hPa 0,0 l/m N 0,00 h 0 W/m 0,0 km/h (0 Bft)
12.06.2018 04:00 15,2 C 99 % 1006,0 hPa 0,0 l/m N 0,00 h 0 W/m 0,0 km/h (0 Bft)
12.06.2018 05:00 15,2 C 99 % 1006,0 hPa 0,0 l/m N 0,00 h 13 W/m 0,0 km/h (0 Bft)
12.06.2018 06:00 15,4 C 99 % 1005,9 hPa 0,0 l/m N 0,42 h 82 W/m 0,0 km/h (0 Bft)
12.06.2018 07:00 16,3 C 98 % 1005,9 hPa 0,0 l/m N 0,00 h 74 W/m 0,0 km/h (0 Bft)
12.06.2018 08:00 16,7 C 97 % 1006,2 hPa 0,0 l/m N 0,00 h 121 W/m 0,0 km/h (0 Bft)
12.06.2018 09:00 17,3 C 93 % 1006,3 hPa 0,0 l/m N 0,00 h 183 W/m 0,0 km/h (0 Bft)
12.06.2018 10:00 17,9 C 91 % 1006,2 hPa 0,0 l/m N 0,00 h 204 W/m 0,0 km/h (0 Bft)
12.06.2018 11:00 18,7 C 86 % 1006,2 hPa 0,0 l/m NW 0,33 h 448 W/m 1,2 km/h (1 Bft)
12.06.2018 12:00 20,7 C 79 % 1006,0 hPa 0,0 l/m N-NO 1,00 h 672 W/m 9,1 km/h (2 Bft)
12.06.2018 13:00 22,4 C 71 % 1005,5 hPa 0,0 l/m N-NO 0,92 h 870 W/m 12,1 km/h (2 Bft)
12.06.2018 14:00 22,6 C 68 % 1004,8 hPa 0,0 l/m N 0,67 h 547 W/m 8,7 km/h (2 Bft)
12.06.2018 15:00 21,8 C 71 % 1004,7 hPa 0,0 l/m N-NO 0,08 h 261 W/m 4,2 km/h (1 Bft)
12.06.2018 16:00 19,3 C 84 % 1005,2 hPa 1,4 l/m W-SW 0,00 h 54 W/m 7,1 km/h (2 Bft)
12.06.2018 17:00 16,7 C 94 % 1005,1 hPa 0,6 l/m N-NW 0,00 h 105 W/m 12,3 km/h (3 Bft)
12.06.2018 18:00 16,5 C 96 % 1005,6 hPa 1,8 l/m N-NO 0,00 h 19 W/m 3,8 km/h (1 Bft)
12.06.2018 19:00 15,8 C 96 % 1005,3 hPa 0,8 l/m N 0,00 h 47 W/m 0,0 km/h (0 Bft)
12.06.2018 20:00 15,8 C 96 % 1005,5 hPa 0,0 l/m N 0,00 h 29 W/m 0,0 km/h (0 Bft)
12.06.2018 21:00 15,4 C 98 % 1005,7 hPa 0,0 l/m N 0,00 h 6 W/m 0,0 km/h (0 Bft)
12.06.2018 22:00 15,3 C 98 % 1006,1 hPa 0,0 l/m N 0,00 h 0 W/m 0,0 km/h (0 Bft)
12.06.2018 23:00 15,2 C 99 % 1005,8 hPa 0,0 l/m N 0,00 h 0 W/m 0,0 km/h (0 Bft)
13.06.2018 00:00 15,0 C 99 % 1005,7 hPa 4,4 l/m N 0,00 h 0 W/m 0,0 km/h (0 Bft)
13.06.2018 01:00 14,9 C 99 % 1005,5 hPa 6,2 l/m N 0,00 h 0 W/m 0,0 km/h (0 Bft)
13.06.2018 02:00 14,9 C 99 % 1005,1 hPa 7,4 l/m N 0,00 h 0 W/m 8,4 km/h (2 Bft)
13.06.2018 03:00 14,6 C 99 % 1005,0 hPa 6,0 l/m N-NO 0,00 h 0 W/m 18,9 km/h (3 Bft)
13.06.2018 04:00 13,5 C 99 % 1005,3 hPa 2,4 l/m N-NO 0,00 h 0 W/m 17,6 km/h (3 Bft)
13.06.2018 05:00 12,6 C 99 % 1005,9 hPa 8,6 l/m N 0,00 h 5 W/m 12,9 km/h (3 Bft)
13.06.2018 06:00 12,1 C 99 % 1006,5 hPa 7,0 l/m N-NO 0,00 h 12 W/m 12,1 km/h (2 Bft)
13.06.2018 07:00 11,7 C 99 % 1006,9 hPa 1,6 l/m N-NO 0,00 h 37 W/m 18,0 km/h (3 Bft)
13.06.2018 08:00 11,5 C 99 % 1007,7 hPa 0,0 l/m N-NO 0,00 h 45 W/m 19,0 km/h (3 Bft)
13.06.2018 09:00 11,5 C 98 % 1008,5 hPa 0,0 l/m N-NO 0,00 h 46 W/m 16,5 km/h (3 Bft)
13.06.2018 10:00 11,6 C 97 % 1009,2 hPa 0,0 l/m N-NO 0,00 h 62 W/m 11,7 km/h (2 Bft)
13.06.2018 11:00 12,0 C 97 % 1009,8 hPa 0,2 l/m NO 0,00 h 243 W/m 13,6 km/h (3 Bft)
13.06.2018 12:00 12,9 C 91 % 1010,2 hPa 0,0 l/m NO 0,00 h 250 W/m 15,2 km/h (3 Bft)
13.06.2018 13:00 13,1 C 87 % 1010,8 hPa 0,0 l/m N 0,00 h 99 W/m 13,0 km/h (3 Bft)
13.06.2018 14:00 12,4 C 90 % 1011,2 hPa 0,0 l/m N 0,00 h 84 W/m 9,3 km/h (2 Bft)
13.06.2018 15:00 12,6 C 89 % 1011,4 hPa 0,0 l/m N 0,00 h 110 W/m 7,4 km/h (2 Bft)
13.06.2018 16:00 12,7 C 87 % 1011,9 hPa 0,0 l/m N 0,00 h 111 W/m 7,9 km/h (2 Bft)
13.06.2018 17:00 13,1 C 86 % 1012,1 hPa 0,0 l/m N 0,00 h 103 W/m 1,5 km/h (1 Bft)
13.06.2018 18:00 12,6 C 85 % 1012,6 hPa 0,0 l/m N-NO 0,00 h 48 W/m 7,1 km/h (2 Bft)
13.06.2018 19:00 12,4 C 87 % 1013,2 hPa 0,0 l/m N 0,00 h 47 W/m 0,0 km/h (0 Bft)
13.06.2018 20:00 12,3 C 89 % 1013,7 hPa 0,0 l/m N 0,00 h 23 W/m 0,0 km/h (0 Bft)
13.06.2018 21:00 12,0 C 89 % 1014,2 hPa 0,0 l/m N 0,00 h 6 W/m 1,1 km/h (0 Bft)
13.06.2018 22:00 11,8 C 90 % 1014,9 hPa 0,0 l/m N 0,00 h 0 W/m 0,0 km/h (0 Bft)
13.06.2018 23:00 11,6 C 91 % 1015,2 hPa 0,0 l/m N 0,00 h 0 W/m 0,0 km/h (0 Bft)
14.06.2018 00:00 11,5 C 93 % 1014,9 hPa 0,0 l/m N 0,00 h 0 W/m 0,0 km/h (0 Bft)
14.06.2018 01:00 11,4 C 91 % 1014,8 hPa 0,0 l/m N 0,00 h 0 W/m 0,0 km/h (0 Bft)
14.06.2018 02:00 11,3 C 91 % 1014,8 hPa 0,0 l/m N 0,00 h 0 W/m 0,0 km/h (0 Bft)
14.06.2018 03:00 11,0 C 93 % 1014,8 hPa 0,0 l/m N 0,00 h 0 W/m 0,0 km/h (0 Bft)
14.06.2018 04:00 10,8 C 94 % 1014,6 hPa 0,0 l/m N 0,00 h 0 W/m 0,0 km/h (0 Bft)
14.06.2018 05:00 10,4 C 94 % 1014,2 hPa 0,0 l/m N 0,00 h 10 W/m 0,0 km/h (0 Bft)
14.06.2018 06:00 9,8 C 97 % 1014,3 hPa 0,0 l/m N 0,33 h 73 W/m 0,0 km/h (0 Bft)
14.06.2018 07:00 11,8 C 90 % 1014,5 hPa 0,0 l/m N-NO 0,75 h 231 W/m 5,0 km/h (1 Bft)
14.06.2018 08:00 13,7 C 80 % 1014,6 hPa 0,0 l/m N-NO 1,00 h 436 W/m 10,2 km/h (2 Bft)
14.06.2018 09:00 15,0 C 68 % 1014,7 hPa 0,0 l/m O 0,58 h 449 W/m 14,9 km/h (3 Bft)
14.06.2018 10:00 16,0 C 61 % 1014,6 hPa 0,0 l/m O 0,42 h 544 W/m 13,7 km/h (3 Bft)
14.06.2018 11:00 15,9 C 63 % 1014,7 hPa 0,0 l/m O-NO 0,67 h 473 W/m 13,4 km/h (3 Bft)
14.06.2018 12:00 16,6 C 63 % 1014,7 hPa 0,0 l/m O 0,83 h 661 W/m 11,8 km/h (2 Bft)
14.06.2018 13:00 17,2 C 61 % 1014,3 hPa 0,0 l/m O 0,33 h 642 W/m 11,4 km/h (2 Bft)
14.06.2018 14:00 17,2 C 62 % 1013,9 hPa 0,0 l/m O 0,25 h 435 W/m 5,1 km/h (1 Bft)
14.06.2018 15:00 18,6 C 58 % 1013,6 hPa 0,0 l/m O 0,50 h 585 W/m 10,2 km/h (2 Bft)
14.06.2018 16:00 19,0 C 57 % 1013,4 hPa 0,0 l/m N-NO 0,83 h 673 W/m 4,4 km/h (1 Bft)
14.06.2018 17:00 18,8 C 59 % 1013,0 hPa 0,0 l/m N 0,58 h 386 W/m 4,3 km/h (1 Bft)
14.06.2018 18:00 19,3 C 55 % 1013,0 hPa 0,0 l/m N 1,00 h 384 W/m 2,7 km/h (1 Bft)
14.06.2018 19:00 18,6 C 55 % 1012,9 hPa 0,0 l/m N 0,92 h 198 W/m 0,3 km/h (0 Bft)
14.06.2018 20:00 16,3 C 71 % 1013,2 hPa 0,0 l/m N 0,00 h 33 W/m 0,0 km/h (0 Bft)
14.06.2018 21:00 13,4 C 81 % 1013,8 hPa 0,0 l/m N 0,00 h 6 W/m 0,0 km/h (0 Bft)
14.06.2018 22:00 12,1 C 86 % 1014,5 hPa 0,0 l/m N 0,00 h 0 W/m 0,0 km/h (0 Bft)
14.06.2018 23:00 11,4 C 90 % 1014,9 hPa 0,0 l/m N 0,00 h 0 W/m 0,0 km/h (0 Bft)
15.06.2018 00:00 11,6 C 90 % 1014,8 hPa 0,0 l/m N 0,00 h 0 W/m 0,0 km/h (0 Bft)
15.06.2018 01:00 11,1 C 90 % 1014,8 hPa 0,0 l/m N 0,00 h 0 W/m 0,0 km/h (0 Bft)
15.06.2018 02:00 10,9 C 91 % 1014,8 hPa 0,0 l/m N 0,00 h 0 W/m 0,8 km/h (0 Bft)
15.06.2018 03:00 10,5 C 91 % 1014,5 hPa 0,0 l/m N 0,00 h 0 W/m 0,0 km/h (0 Bft)
15.06.2018 04:00 9,8 C 94 % 1014,4 hPa 0,0 l/m N 0,00 h 0 W/m 0,0 km/h (0 Bft)
15.06.2018 05:00 9,5 C 96 % 1014,5 hPa 0,0 l/m N 0,42 h 19 W/m 0,0 km/h (0 Bft)
15.06.2018 06:00 10,3 C 95 % 1014,6 hPa 0,0 l/m N 0,42 h 75 W/m 2,7 km/h (1 Bft)
15.06.2018 07:00 12,6 C 88 % 1014,5 hPa 0,0 l/m N 0,83 h 215 W/m 0,7 km/h (0 Bft)
15.06.2018 08:00 14,5 C 82 % 1014,5 hPa 0,0 l/m N 0,92 h 324 W/m 0,7 km/h (0 Bft)
15.06.2018 09:00 16,8 C 74 % 1014,6 hPa 0,0 l/m N 0,83 h 449 W/m 2,0 km/h (1 Bft)
15.06.2018 10:00 18,6 C 62 % 1014,5 hPa 0,0 l/m O 0,75 h 538 W/m 9,9 km/h (2 Bft)
15.06.2018 11:00 18,8 C 63 % 1014,4 hPa 0,0 l/m NO 0,50 h 530 W/m 8,7 km/h (2 Bft)
15.06.2018 12:00 19,7 C 61 % 1014,4 hPa 0,0 l/m N-NO 0,58 h 663 W/m 7,5 km/h (2 Bft)
15.06.2018 13:00 20,0 C 60 % 1014,2 hPa 0,0 l/m N-NO 0,50 h 579 W/m 14,9 km/h (3 Bft)
15.06.2018 14:00 21,1 C 55 % 1014,0 hPa 0,0 l/m NO 0,67 h 731 W/m 10,9 km/h (2 Bft)
15.06.2018 15:00 22,0 C 51 % 1013,7 hPa 0,0 l/m O-NO 0,83 h 881 W/m 14,2 km/h (3 Bft)
15.06.2018 16:00 22,2 C 50 % 1013,5 hPa 0,0 l/m NO 0,75 h 626 W/m 14,5 km/h (3 Bft)
15.06.2018 17:00 22,3 C 48 % 1013,3 hPa 0,0 l/m O-NO 0,92 h 454 W/m 12,9 km/h (3 Bft)
15.06.2018 18:00 22,0 C 47 % 1013,2 hPa 0,0 l/m O-NO 1,00 h 354 W/m 11,7 km/h (2 Bft)
15.06.2018 19:00 20,7 C 51 % 1013,4 hPa 0,0 l/m O-NO 0,67 h 155 W/m 4,7 km/h (1 Bft)
15.06.2018 20:00 19,9 C 55 % 1013,5 hPa 0,0 l/m O-NO 0,33 h 60 W/m 7,1 km/h (2 Bft)
15.06.2018 21:00 17,4 C 69 % 1014,0 hPa 0,0 l/m N 0,17 h 12 W/m 0,4 km/h (0 Bft)
15.06.2018 22:00 14,5 C 82 % 1014,2 hPa 0,0 l/m N 0,00 h 0 W/m 0,0 km/h (0 Bft)
15.06.2018 23:00 13,1 C 87 % 1014,2 hPa 0,0 l/m N 0,00 h 0 W/m 0,0 km/h (0 Bft)
16.06.2018 00:00 12,3 C 88 % 1014,3 hPa 0,0 l/m N 0,00 h 0 W/m 0,0 km/h (0 Bft)
16.06.2018 01:00 11,7 C 90 % 1014,1 hPa 0,0 l/m N 0,00 h 0 W/m 0,0 km/h (0 Bft)
16.06.2018 02:00 11,4 C 91 % 1013,9 hPa 0,0 l/m N 0,00 h 0 W/m 0,0 km/h (0 Bft)
16.06.2018 03:00 11,1 C 92 % 1013,6 hPa 0,0 l/m NO 0,00 h 0 W/m 2,0 km/h (1 Bft)
16.06.2018 04:00 11,0 C 91 % 1013,4 hPa 0,0 l/m N 0,00 h 0 W/m 1,1 km/h (0 Bft)
16.06.2018 05:00 10,6 C 92 % 1013,4 hPa 0,0 l/m N 0,08 h 12 W/m 0,0 km/h (0 Bft)
16.06.2018 06:00 11,0 C 93 % 1013,4 hPa 0,0 l/m N 0,33 h 78 W/m 0,0 km/h (0 Bft)
16.06.2018 07:00 13,0 C 87 % 1013,5 hPa 0,0 l/m N 0,75 h 225 W/m 0,7 km/h (0 Bft)
16.06.2018 08:00 15,7 C 78 % 1013,6 hPa 0,0 l/m N 1,00 h 414 W/m 1,9 km/h (1 Bft)
16.06.2018 09:00 18,6 C 68 % 1013,7 hPa 0,0 l/m O-NO 0,75 h 421 W/m 3,9 km/h (1 Bft)
16.06.2018 10:00 20,7 C 57 % 1013,5 hPa 0,0 l/m O-SO 0,83 h 588 W/m 10,2 km/h (2 Bft)
16.06.2018 11:00 21,8 C 51 % 1013,4 hPa 0,0 l/m O-NO 1,00 h 824 W/m 10,7 km/h (2 Bft)
16.06.2018 12:00 22,8 C 47 % 1013,3 hPa 0,0 l/m NO 1,00 h 884 W/m 12,8 km/h (3 Bft)
16.06.2018 13:00 23,5 C 45 % 1013,0 hPa 0,0 l/m O-NO 0,83 h 792 W/m 7,6 km/h (2 Bft)
16.06.2018 14:00 24,0 C 45 % 1012,4 hPa 0,0 l/m O 1,00 h 867 W/m 8,6 km/h (2 Bft)
16.06.2018 15:00 24,7 C 44 % 1012,2 hPa 0,0 l/m O-SO 0,92 h 763 W/m 8,3 km/h (2 Bft)
16.06.2018 16:00 24,8 C 42 % 1011,8 hPa 0,0 l/m O-SO 1,00 h 570 W/m 4,7 km/h (1 Bft)
16.06.2018 17:00 24,3 C 44 % 1011,8 hPa 0,0 l/m N 1,00 h 466 W/m 2,7 km/h (1 Bft)
16.06.2018 18:00 23,7 C 45 % 1011,8 hPa 0,0 l/m N 0,67 h 283 W/m 2,1 km/h (1 Bft)
16.06.2018 19:00 23,2 C 48 % 1011,8 hPa 0,0 l/m N-NO 0,92 h 219 W/m 4,0 km/h (1 Bft)
16.06.2018 20:00 21,3 C 60 % 1012,1 hPa 0,0 l/m N 0,33 h 57 W/m 0,1 km/h (0 Bft)
16.06.2018 21:00 18,4 C 72 % 1012,4 hPa 0,0 l/m N 0,17 h 9 W/m 0,0 km/h (0 Bft)
16.06.2018 22:00 16,9 C 76 % 1013,0 hPa 0,0 l/m N 0,00 h 0 W/m 0,0 km/h (0 Bft)
16.06.2018 23:00 15,8 C 80 % 1013,3 hPa 0,0 l/m N 0,00 h 0 W/m 0,0 km/h (0 Bft)
17.06.2018 00:00 15,8 C 82 % 1013,5 hPa 0,0 l/m N 0,00 h 0 W/m 0,0 km/h (0 Bft)
17.06.2018 01:00 15,5 C 84 % 1013,4 hPa 0,0 l/m N 0,00 h 0 W/m 0,0 km/h (0 Bft)
17.06.2018 02:00 15,0 C 86 % 1013,2 hPa 0,0 l/m N 0,00 h 0 W/m 0,0 km/h (0 Bft)
17.06.2018 03:00 13,9 C 90 % 1013,4 hPa 0,0 l/m N 0,00 h 0 W/m 0,7 km/h (0 Bft)
17.06.2018 04:00 14,2 C 88 % 1013,5 hPa 0,0 l/m N 0,00 h 0 W/m 0,7 km/h (0 Bft)
17.06.2018 05:00 13,4 C 91 % 1013,8 hPa 0,0 l/m N 0,00 h 10 W/m 0,0 km/h (0 Bft)
17.06.2018 06:00 13,4 C 94 % 1014,2 hPa 0,0 l/m N 0,00 h 41 W/m 0,0 km/h (0 Bft)
17.06.2018 07:00 14,2 C 93 % 1014,6 hPa 0,0 l/m N 0,42 h 186 W/m 0,0 km/h (0 Bft)
17.06.2018 08:00 17,5 C 82 % 1014,9 hPa 0,0 l/m N 0,67 h 324 W/m 0,7 km/h (0 Bft)
17.06.2018 09:00 18,9 C 75 % 1015,2 hPa 0,0 l/m N-NW 0,75 h 473 W/m 2,1 km/h (1 Bft)
17.06.2018 10:00 20,0 C 68 % 1015,4 hPa 0,0 l/m N-NW 0,58 h 423 W/m 4,7 km/h (1 Bft)
17.06.2018 11:00 20,8 C 64 % 1015,4 hPa 0,0 l/m N-NW 0,75 h 612 W/m 10,2 km/h (2 Bft)
17.06.2018 12:00 21,9 C 61 % 1015,3 hPa 0,0 l/m N 0,92 h 830 W/m 11,3 km/h (2 Bft)
17.06.2018 13:00 22,8 C 56 % 1015,0 hPa 0,0 l/m N-NW 1,00 h 927 W/m 10,3 km/h (2 Bft)
17.06.2018 14:00 23,1 C 56 % 1014,7 hPa 0,0 l/m W-NW 0,50 h 640 W/m 10,6 km/h (2 Bft)
17.06.2018 15:00 21,9 C 61 % 1014,4 hPa 0,0 l/m NW 0,08 h 257 W/m 6,3 km/h (2 Bft)
17.06.2018 16:00 21,0 C 66 % 1014,5 hPa 0,0 l/m NW 0,00 h 164 W/m 3,6 km/h (1 Bft)
17.06.2018 17:00 21,5 C 65 % 1014,6 hPa 0,0 l/m N-NO 0,50 h 323 W/m 12,7 km/h (3 Bft)
17.06.2018 18:00 19,3 C 73 % 1015,1 hPa 0,4 l/m N 0,00 h 50 W/m 9,9 km/h (2 Bft)
17.06.2018 19:00 17,0 C 90 % 1015,7 hPa 0,0 l/m N 0,00 h 41 W/m 0,0 km/h (0 Bft)
17.06.2018 20:00 16,7 C 93 % 1016,3 hPa 0,2 l/m N 0,00 h 11 W/m 0,0 km/h (0 Bft)
17.06.2018 21:00 16,0 C 95 % 1017,0 hPa 0,2 l/m N 0,00 h 5 W/m 0,0 km/h (0 Bft)
17.06.2018 22:00 15,6 C 96 % 1017,8 hPa 0,0 l/m N 0,00 h 0 W/m 0,0 km/h (0 Bft)
17.06.2018 23:00 15,3 C 96 % 1018,0 hPa 0,0 l/m N 0,00 h 0 W/m 0,0 km/h (0 Bft)
Min-Datum _ 14.06.18 16.06.18 11.06.18 - - - - 11.06.18
_ Min-Zeit 06:15 16:20 17:10 - - - - 00:00
Minimum _ 9,4 C 40 % 1002,3 hPa - - - - 0,0 km/h (0 Bft)
Max-Datum _ 11.06.18 11.06.18 17.06.18 13.06.18 - 11.06.18 14.06.18 11.06.18
_ Max-Zeit 13:00 06:00 23:35 05:55 - 05:35 12:45 17:20
Maximum _ 27,2 C 99 % 1018,1 hPa 8,6 l/m - 0,08 h 1274 W/m 40,2 km/h
W (6 Bft)
Durchschnitt _ 16,6 C 81 % 1011,1 hPa #57,2 l/m N-NO #48:00 h 296 W/m 4,5 km/h (1 Bft)